Terminal Aerodrome Forecast
Issued by NWS Brownsville, TX

Current Version | Previous Version | Text Only | Print | Product List | Glossary Off
Versions: 1 2 3 4 5 6 7 8 9 10 11 12 13 14 15 16 17 18 19 20 21

000
FTUS44 KBRO 210500
TAFBRO
TAF
KBRO 210527Z 2106/2206 07006KT P6SM SCT030
     FM211700 07012KT P6SM VCSH SCT030 BKN050
     FM212100 05010KT P6SM SCT040 SCT120
     FM220100 06006KT P6SM FEW050 BKN120=

USA.gov is the U.S. government's official web portal to all federal, state and local government web resources and services.